Time;durP1;ratioP1;P1;durP2;ratioP2;P2;SDS_P1;SDS_P2;PMS_P1;PMS_P2;Temp;Humidity;BMP_temperature;BMP_pressure;BME280_temperature;BME280_humidity;BME280_pressure;Samples;Min_cycle;Max_cycle;Signal;HPM_P1;HPM_P2
2024/02/19 00:02:38;;;;;;;13.20;9.10;;;24.00;39.30;;;;;;6145432;28;80692;-59
2024/02/19 00:05:39;;;;;;;15.70;10.07;;;24.00;39.10;;;;;;6152560;28;81743;-60
2024/02/19 00:08:39;;;;;;;15.13;10.55;;;24.00;38.90;;;;;;6150635;28;83287;-60
2024/02/19 00:11:40;;;;;;;12.55;8.68;;;24.00;38.90;;;;;;6147328;28;84977;-59
2024/02/19 00:14:40;;;;;;;17.80;9.75;;;23.90;38.90;;;;;;6146057;28;83373;-59
2024/02/19 00:17:41;;;;;;;15.38;9.88;;;23.90;38.90;;;;;;6152535;28;80634;-60
2024/02/19 00:20:41;;;;;;;15.85;10.98;;;24.00;39.00;;;;;;6152857;28;81401;-59
2024/02/19 00:23:42;;;;;;;14.93;9.45;;;23.90;39.00;;;;;;6150721;28;82911;-60
2024/02/19 00:26:42;;;;;;;13.90;9.88;;;23.90;39.10;;;;;;6152988;28;83620;-58
2024/02/19 00:29:44;;;;;;;16.45;9.85;;;23.90;39.00;;;;;;6152166;28;80423;-59
2024/02/19 00:32:45;;;;;;;16.35;10.23;;;24.00;39.00;;;;;;6132641;28;81473;-59
2024/02/19 00:35:46;;;;;;;16.23;10.02;;;23.90;39.10;;;;;;6143813;28;83667;-60
2024/02/19 00:38:46;;;;;;;15.65;10.27;;;23.90;39.40;;;;;;6147582;28;83676;-60
2024/02/19 00:41:47;;;;;;;17.63;10.07;;;23.90;39.00;;;;;;6139586;28;82998;-60
2024/02/19 00:44:47;;;;;;;16.63;9.70;;;23.90;39.20;;;;;;6149779;28;84791;-60
2024/02/19 00:47:48;;;;;;;16.35;10.27;;;23.80;39.10;;;;;;6153150;28;83011;-59
2024/02/19 00:50:50;;;;;;;14.07;10.13;;;23.80;39.10;;;;;;6149306;28;83209;-62
2024/02/19 00:53:50;;;;;;;18.33;10.60;;;23.80;39.10;;;;;;6148447;28;85039;-60
2024/02/19 00:56:51;;;;;;;17.10;10.48;;;23.80;39.10;;;;;;6148857;28;83517;-60
2024/02/19 00:59:51;;;;;;;15.98;10.02;;;23.80;39.00;;;;;;6129867;28;83237;-58
2024/02/19 01:02:52;;;;;;;19.45;11.27;;;23.90;39.10;;;;;;6142023;28;83015;-58
2024/02/19 01:05:52;;;;;;;18.15;11.35;;;23.90;39.10;;;;;;6148801;28;83573;-58
2024/02/19 01:08:54;;;;;;;15.88;10.32;;;23.80;39.20;;;;;;6139372;28;83021;-58
2024/02/19 01:11:55;;;;;;;15.38;9.80;;;23.90;39.00;;;;;;6145077;28;83402;-59
2024/02/19 01:14:56;;;;;;;16.13;10.30;;;23.80;39.00;;;;;;6151819;28;85570;-59
2024/02/19 01:17:56;;;;;;;18.35;10.90;;;23.80;39.00;;;;;;6148407;28;83632;-59
2024/02/19 01:20:57;;;;;;;16.48;10.68;;;23.90;39.00;;;;;;6149193;28;83054;-59
2024/02/19 01:23:57;;;;;;;15.65;9.48;;;23.90;39.00;;;;;;6148586;28;83114;-59
2024/02/19 01:26:57;;;;;;;14.10;9.98;;;23.90;38.90;;;;;;6152870;28;82919;-60
2024/02/19 01:29:58;;;;;;;14.38;9.82;;;23.90;39.00;;;;;;6148282;28;83052;-60
2024/02/19 01:33:01;;;;;;;15.88;10.13;;;23.90;39.10;;;;;;6141959;28;83018;-59
2024/02/19 01:36:01;;;;;;;16.77;10.90;;;24.00;39.10;;;;;;6142515;28;83392;-58
2024/02/19 01:39:02;;;;;;;12.73;9.63;;;23.90;39.60;;;;;;6148605;28;82943;-59
2024/02/19 01:42:03;;;;;;;16.00;9.90;;;23.90;38.90;;;;;;6152169;28;81748;-58
2024/02/19 01:45:05;;;;;;;13.88;9.77;;;23.90;39.40;;;;;;6151320;28;80255;-60
2024/02/19 01:48:06;;;;;;;13.50;9.55;;;23.80;39.30;;;;;;6151035;28;81539;-61
2024/02/19 01:51:07;;;;;;;14.52;10.32;;;23.90;39.70;;;;;;6145548;28;81474;-60
2024/02/19 01:54:07;;;;;;;16.83;10.55;;;23.90;39.70;;;;;;6148771;28;83240;-60
2024/02/19 01:57:08;;;;;;;17.10;9.85;;;23.90;39.50;;;;;;6147692;28;85427;-58
2024/02/19 02:00:08;;;;;;;14.27;9.80;;;23.90;39.30;;;;;;6148643;28;83254;-60
2024/02/19 02:03:12;;;;;;;16.95;10.43;;;23.90;39.20;;;;;;6151327;28;80425;-56
2024/02/19 02:06:12;;;;;;;16.88;10.43;;;23.90;39.20;;;;;;6144443;28;83278;-58
2024/02/19 02:09:12;;;;;;;15.43;9.95;;;23.80;39.10;;;;;;6148886;28;83058;-59
2024/02/19 02:12:13;;;;;;;17.58;10.43;;;23.80;39.10;;;;;;6150954;28;83280;-60
2024/02/19 02:15:13;;;;;;;15.25;10.07;;;23.70;39.00;;;;;;6147933;28;83397;-57
2024/02/19 02:18:16;;;;;;;14.38;9.15;;;23.80;39.00;;;;;;6147322;28;83216;-59
2024/02/19 02:21:17;;;;;;;12.55;8.60;;;23.70;38.90;;;;;;6151618;28;83043;-59
2024/02/19 02:24:19;;;;;;;15.48;9.88;;;23.80;39.10;;;;;;6152898;28;80790;-59
2024/02/19 02:27:19;;;;;;;14.25;10.15;;;23.70;38.90;;;;;;6154698;28;81119;-60
2024/02/19 02:30:20;;;;;;;15.20;9.73;;;23.70;38.80;;;;;;6148938;28;83116;-53
2024/02/19 02:33:20;;;;;;;13.60;9.43;;;23.70;38.80;;;;;;6143552;28;82964;-49
2024/02/19 02:36:21;;;;;;;15.63;10.18;;;23.70;38.80;;;;;;6154857;28;81082;-51
2024/02/19 02:39:21;;;;;;;17.10;10.43;;;23.80;38.80;;;;;;6150803;28;83910;-52
2024/02/19 02:42:22;;;;;;;13.73;8.75;;;23.70;38.80;;;;;;6150781;28;83271;-51
2024/02/19 02:45:22;;;;;;;14.80;9.40;;;23.70;38.90;;;;;;6154858;28;83538;-51
2024/02/19 02:48:23;;;;;;;15.27;10.23;;;23.70;38.80;;;;;;6150363;28;80342;-58
2024/02/19 02:51:24;;;;;;;15.93;10.20;;;23.70;38.80;;;;;;6142394;28;82971;-59
2024/02/19 02:54:24;;;;;;;16.10;9.82;;;23.70;38.90;;;;;;6150874;28;83288;-59
2024/02/19 02:57:25;;;;;;;12.00;8.93;;;23.70;38.80;;;;;;6153414;28;83287;-58
2024/02/19 03:00:26;;;;;;;14.95;10.00;;;23.70;38.70;;;;;;6144216;28;83296;-58
2024/02/19 03:03:32;;;;;;;14.43;9.75;;;23.70;38.70;;;;;;6146454;28;84583;-59
2024/02/19 03:06:33;;;;;;;15.20;10.20;;;23.70;38.80;;;;;;6150132;28;83135;-57
2024/02/19 03:09:33;;;;;;;17.52;10.57;;;23.70;38.60;;;;;;6140997;28;83996;-57
2024/02/19 03:12:34;;;;;;;18.23;10.05;;;23.70;38.60;;;;;;6145301;28;83277;-59
2024/02/19 03:15:34;;;;;;;15.88;10.13;;;23.70;38.70;;;;;;6146054;28;85233;-59
2024/02/19 03:18:35;;;;;;;14.52;9.88;;;23.70;38.80;;;;;;6169380;28;83156;-60
2024/02/19 03:21:36;;;;;;;14.50;9.95;;;23.80;38.80;;;;;;6158846;28;83547;-61
2024/02/19 03:24:36;;;;;;;16.98;10.65;;;23.80;38.60;;;;;;6153545;28;81094;-50
2024/02/19 03:27:37;;;;;;;15.65;10.75;;;23.80;38.60;;;;;;6147789;28;82751;-48
2024/02/19 03:30:37;;;;;;;15.80;10.52;;;23.80;38.60;;;;;;6142136;28;84951;-52
2024/02/19 03:33:38;;;;;;;14.85;10.38;;;23.80;38.40;;;;;;6150260;28;83194;-48
2024/02/19 03:36:39;;;;;;;17.65;10.13;;;23.70;38.60;;;;;;6149879;28;86304;-48
2024/02/19 03:39:39;;;;;;;18.92;10.95;;;23.80;38.60;;;;;;6150619;28;85025;-50
2024/02/19 03:42:40;;;;;;;15.75;10.50;;;23.70;38.50;;;;;;6150157;28;83161;-48
2024/02/19 03:45:40;;;;;;;16.30;10.93;;;23.80;38.50;;;;;;6150816;28;84902;-54
2024/02/19 03:48:42;;;;;;;16.77;10.27;;;23.80;38.40;;;;;;6150375;28;83437;-54
2024/02/19 03:51:43;;;;;;;15.52;10.35;;;23.70;38.40;;;;;;6149185;28;83161;-51
2024/02/19 03:54:43;;;;;;;15.10;10.63;;;23.70;38.40;;;;;;6150324;28;82737;-53
2024/02/19 03:57:44;;;;;;;20.90;10.88;;;23.80;38.40;;;;;;6141691;28;83143;-53
2024/02/19 04:00:44;;;;;;;18.70;11.27;;;23.80;38.30;;;;;;6137921;28;83051;-49
2024/02/19 04:03:45;;;;;;;18.75;11.43;;;23.70;38.20;;;;;;6150408;28;83065;-50
2024/02/19 04:06:46;;;;;;;19.80;11.07;;;23.70;38.30;;;;;;6148801;28;83226;-53
2024/02/19 04:09:46;;;;;;;18.75;11.15;;;23.70;38.20;;;;;;6150070;28;83525;-52
2024/02/19 04:12:46;;;;;;;16.75;10.10;;;23.70;38.30;;;;;;6150350;28;83558;-50
2024/02/19 04:15:47;;;;;;;16.88;11.13;;;23.80;38.40;;;;;;6150022;28;82967;-53
2024/02/19 04:18:47;;;;;;;16.88;10.93;;;23.70;38.60;;;;;;6145667;28;83202;-52
2024/02/19 04:21:48;;;;;;;19.50;11.80;;;23.70;38.80;;;;;;6141693;28;82992;-59
2024/02/19 04:24:48;;;;;;;16.48;10.73;;;23.80;38.30;;;;;;6139750;28;83252;-58
2024/02/19 04:27:49;;;;;;;19.27;11.27;;;23.80;38.30;;;;;;6138248;28;83699;-59
2024/02/19 04:30:49;;;;;;;18.45;10.95;;;23.80;38.00;;;;;;6142641;28;85373;-59
2024/02/19 04:33:50;;;;;;;16.73;10.55;;;23.90;37.70;;;;;;6146705;28;83235;-59
2024/02/19 04:36:50;;;;;;;19.00;11.75;;;23.90;37.70;;;;;;6147949;28;83324;-60
2024/02/19 04:39:51;;;;;;;18.17;11.30;;;24.00;37.60;;;;;;6150216;28;83591;-50
2024/02/19 04:42:52;;;;;;;16.17;11.20;;;24.00;37.50;;;;;;6147839;28;83328;-55
2024/02/19 04:45:53;;;;;;;17.45;11.40;;;24.00;37.50;;;;;;6138489;28;83496;-52
2024/02/19 04:48:53;;;;;;;16.10;10.88;;;24.10;37.50;;;;;;6147136;28;84242;-52
2024/02/19 04:51:54;;;;;;;18.42;11.25;;;24.10;37.30;;;;;;6143425;28;83271;-46
2024/02/19 04:54:54;;;;;;;16.40;10.52;;;24.10;38.00;;;;;;6140079;28;83226;-52
2024/02/19 04:57:55;;;;;;;15.15;9.95;;;24.10;37.40;;;;;;6145524;28;83130;-59
2024/02/19 05:00:55;;;;;;;17.05;10.40;;;24.20;37.40;;;;;;6141352;28;82994;-58
2024/02/19 05:03:56;;;;;;;18.10;11.43;;;24.20;37.30;;;;;;6147376;28;83007;-57
2024/02/19 05:06:56;;;;;;;19.02;11.82;;;24.20;37.10;;;;;;6149248;28;84442;-58
2024/02/19 05:09:57;;;;;;;17.25;10.68;;;24.20;37.00;;;;;;6137045;28;85614;-60
2024/02/19 05:12:57;;;;;;;16.42;11.15;;;24.30;37.10;;;;;;6126272;28;83567;-57
2024/02/19 05:15:58;;;;;;;15.82;9.70;;;24.30;37.00;;;;;;6138684;28;83191;-58
2024/02/19 05:19:00;;;;;;;15.18;10.40;;;24.30;37.20;;;;;;6131887;28;83228;-57
2024/02/19 05:22:00;;;;;;;16.10;9.73;;;24.30;37.00;;;;;;6127563;28;83125;-58
2024/02/19 05:25:01;;;;;;;16.08;10.48;;;24.30;36.90;;;;;;6145255;28;82836;-58
2024/02/19 05:28:01;;;;;;;17.33;10.63;;;24.30;36.80;;;;;;6147726;28;83724;-59
2024/02/19 05:31:03;;;;;;;16.88;10.63;;;24.30;37.30;;;;;;6138151;28;83612;-56
2024/02/19 05:34:03;;;;;;;16.02;10.27;;;24.30;37.30;;;;;;6141007;28;83318;-63
2024/02/19 05:37:04;;;;;;;17.48;10.45;;;24.30;37.80;;;;;;6135542;28;83246;-60
2024/02/19 05:40:04;;;;;;;17.88;10.52;;;24.30;38.20;;;;;;6147724;28;82981;-64
2024/02/19 05:43:05;;;;;;;21.10;10.88;;;24.30;38.10;;;;;;6144862;28;85314;-62
2024/02/19 05:46:05;;;;;;;21.15;10.48;;;24.30;38.90;;;;;;6147886;28;83761;-61
2024/02/19 05:49:06;;;;;;;18.48;9.80;;;24.30;38.90;;;;;;6146554;28;83305;-57
2024/02/19 05:52:06;;;;;;;20.58;10.38;;;24.30;38.90;;;;;;6149554;28;81889;-54
2024/02/19 05:55:09;;;;;;;17.65;10.80;;;24.30;39.40;;;;;;6147500;28;82972;-52
2024/02/19 05:58:09;;;;;;;18.77;9.93;;;24.30;39.70;;;;;;6141919;28;83961;-60
2024/02/19 06:01:10;;;;;;;17.08;10.48;;;24.30;40.50;;;;;;6145837;28;83547;-59
2024/02/19 06:04:10;;;;;;;25.45;10.25;;;24.30;39.50;;;;;;6149434;28;83028;-60
2024/02/19 06:07:11;;;;;;;15.07;10.05;;;24.20;39.40;;;;;;6150104;28;84234;-59
2024/02/19 06:10:12;;;;;;;19.05;10.85;;;24.20;39.60;;;;;;6140942;28;84343;-56
2024/02/19 06:13:12;;;;;;;19.77;11.20;;;24.20;39.50;;;;;;6150157;28;83268;-60
2024/02/19 06:16:13;;;;;;;15.73;9.95;;;24.20;39.40;;;;;;6138214;28;86053;-60
2024/02/19 06:19:15;;;;;;;18.73;10.80;;;24.10;39.10;;;;;;6148489;28;85381;-59
2024/02/19 06:22:15;;;;;;;14.60;9.43;;;24.10;39.00;;;;;;6148055;28;86356;-59
2024/02/19 06:25:16;;;;;;;17.38;10.23;;;24.10;38.50;;;;;;6136779;28;84853;-61
2024/02/19 06:28:16;;;;;;;16.00;11.05;;;24.10;38.70;;;;;;6169606;28;85240;-59
2024/02/19 06:31:17;;;;;;;16.60;10.70;;;24.00;38.40;;;;;;6150326;28;83195;-63
2024/02/19 06:34:17;;;;;;;14.93;9.80;;;24.00;39.10;;;;;;6148988;28;83885;-60
2024/02/19 06:37:18;;;;;;;17.25;10.98;;;24.00;39.00;;;;;;6154256;28;82926;-59
2024/02/19 06:40:19;;;;;;;17.10;10.27;;;24.00;38.90;;;;;;6148265;28;82772;-60
2024/02/19 06:43:19;;;;;;;16.02;10.32;;;23.90;39.20;;;;;;6149606;28;83174;-69
2024/02/19 06:46:20;;;;;;;18.90;11.98;;;23.90;38.90;;;;;;6134361;28;84666;-58
2024/02/19 06:49:22;;;;;;;21.38;12.02;;;23.80;38.30;;;;;;6148202;28;83734;-53
2024/02/19 06:52:22;;;;;;;17.73;11.48;;;23.80;38.50;;;;;;6149204;28;83558;-49
2024/02/19 06:55:23;;;;;;;17.83;12.07;;;23.80;38.50;;;;;;6151896;28;86365;-52
2024/02/19 06:58:23;;;;;;;18.08;12.02;;;23.70;38.00;;;;;;6144872;28;83448;-52
2024/02/19 07:01:24;;;;;;;18.10;11.98;;;23.70;37.90;;;;;;6144978;28;82940;-51
2024/02/19 07:04:24;;;;;;;16.90;11.43;;;23.70;38.10;;;;;;6146886;28;85782;-54
2024/02/19 07:07:25;;;;;;;17.80;11.63;;;23.70;37.90;;;;;;6146802;28;86304;-59
2024/02/19 07:10:26;;;;;;;18.95;11.20;;;23.60;37.60;;;;;;6150638;28;83506;-58
2024/02/19 07:13:26;;;;;;;20.58;11.73;;;23.60;37.50;;;;;;6142271;28;83744;-60
2024/02/19 07:16:30;;;;;;;19.58;11.77;;;23.60;37.40;;;;;;6149602;28;84498;-61
2024/02/19 07:19:30;;;;;;;18.48;11.27;;;23.60;37.30;;;;;;6150449;28;83423;-57
2024/02/19 07:22:31;;;;;;;20.73;11.30;;;23.60;37.30;;;;;;6145126;28;83397;-60
2024/02/19 07:25:31;;;;;;;19.23;12.48;;;23.60;37.40;;;;;;6136779;28;84491;-52
2024/02/19 07:28:32;;;;;;;16.23;10.88;;;23.60;37.60;;;;;;6139678;28;86962;-55
2024/02/19 07:31:32;;;;;;;16.17;10.82;;;23.60;37.50;;;;;;6146565;28;83886;-54
2024/02/19 07:34:33;;;;;;;17.25;11.40;;;23.60;37.50;;;;;;6151431;28;83077;-54
2024/02/19 07:37:33;;;;;;;15.50;10.32;;;23.50;37.40;;;;;;6150561;28;83519;-61
2024/02/19 07:40:34;;;;;;;17.13;11.27;;;23.50;38.10;;;;;;6151875;28;85620;-55
2024/02/19 07:43:34;;;;;;;22.80;12.52;;;23.50;39.80;;;;;;6140235;28;83557;-57
2024/02/19 07:46:34;;;;;;;18.27;11.13;;;23.50;40.50;;;;;;6149372;28;83916;-58
2024/02/19 07:49:35;;;;;;;20.17;11.25;;;23.50;41.00;;;;;;6146942;28;86475;-58
2024/02/19 07:52:35;;;;;;;17.45;11.15;;;23.50;40.90;;;;;;6146954;28;87267;-59
2024/02/19 07:55:37;;;;;;;16.95;11.27;;;23.60;40.40;;;;;;6146860;28;83054;-60
2024/02/19 07:58:38;;;;;;;18.10;12.15;;;23.60;40.50;;;;;;6136194;28;83165;-58
2024/02/19 08:01:38;;;;;;;17.30;11.23;;;23.50;41.10;;;;;;6143179;28;86432;-58
2024/02/19 08:04:39;;;;;;;18.02;11.40;;;23.50;41.40;;;;;;6150059;28;83198;-58
2024/02/19 08:07:39;;;;;;;19.52;11.50;;;23.50;42.70;;;;;;6148898;28;86235;-62
2024/02/19 08:10:40;;;;;;;20.33;11.90;;;23.50;42.40;;;;;;6138227;28;85388;-61
2024/02/19 08:13:40;;;;;;;18.55;11.70;;;23.50;42.80;;;;;;6148719;28;86060;-60
2024/02/19 08:16:41;;;;;;;15.55;11.23;;;23.40;42.70;;;;;;6138007;28;86515;-58
2024/02/19 08:19:41;;;;;;;16.58;10.88;;;23.50;43.70;;;;;;6151557;28;84436;-61
2024/02/19 08:22:42;;;;;;;17.90;11.80;;;23.40;44.00;;;;;;6151601;28;83362;-59
2024/02/19 08:25:42;;;;;;;18.00;11.32;;;23.40;45.00;;;;;;6149635;28;83241;-59
2024/02/19 08:28:43;;;;;;;18.33;11.65;;;23.40;44.50;;;;;;6147751;28;83065;-60
2024/02/19 08:31:43;;;;;;;20.05;11.05;;;23.40;44.50;;;;;;6142400;28;86179;-59
2024/02/19 08:34:44;;;;;;;18.15;10.60;;;23.50;45.50;;;;;;6151138;28;83318;-58
2024/02/19 08:37:45;;;;;;;19.52;10.68;;;23.40;44.80;;;;;;6149933;28;83025;-55
2024/02/19 08:40:45;;;;;;;21.73;12.07;;;23.50;45.30;;;;;;6139992;28;83646;-58
2024/02/19 08:43:46;;;;;;;18.35;11.38;;;23.40;46.00;;;;;;6147772;28;83749;-59
2024/02/19 08:46:46;;;;;;;17.98;11.32;;;23.40;45.50;;;;;;6150711;28;84095;-59
2024/02/19 08:49:47;;;;;;;24.52;11.63;;;23.40;46.30;;;;;;6150985;28;82902;-59
2024/02/19 08:52:47;;;;;;;19.13;11.40;;;23.40;46.30;;;;;;6149262;28;84866;-59
2024/02/19 08:55:48;;;;;;;15.23;10.43;;;23.40;46.20;;;;;;6152614;28;83449;-63
2024/02/19 08:58:48;;;;;;;15.20;10.38;;;23.50;46.50;;;;;;6151297;28;82970;-60
2024/02/19 09:01:49;;;;;;;17.35;11.23;;;23.50;46.40;;;;;;6138064;28;83219;-61
2024/02/19 09:04:50;;;;;;;17.00;10.93;;;23.50;46.50;;;;;;6154540;28;85051;-65
2024/02/19 09:07:50;;;;;;;22.15;10.65;;;23.50;46.50;;;;;;6164643;28;83370;-62
2024/02/19 09:10:51;;;;;;;18.70;11.70;;;23.50;46.50;;;;;;6146985;28;82723;-61
2024/02/19 09:13:51;;;;;;;16.40;10.75;;;23.50;46.70;;;;;;6151287;28;83781;-53
2024/02/19 09:16:53;;;;;;;17.30;10.73;;;23.50;47.00;;;;;;6149662;28;86098;-55
2024/02/19 09:19:53;;;;;;;17.17;10.30;;;23.50;46.90;;;;;;6151234;28;83197;-54
2024/02/19 09:22:54;;;;;;;17.25;10.85;;;23.50;46.80;;;;;;6150193;28;82941;-54
2024/02/19 09:25:55;;;;;;;18.45;10.65;;;23.50;47.40;;;;;;6147828;28;83399;-53
2024/02/19 09:28:55;;;;;;;15.38;10.57;;;23.50;46.90;;;;;;6137131;28;84097;-57
2024/02/19 09:31:56;;;;;;;14.85;10.02;;;23.40;46.80;;;;;;6136931;28;83348;-56
2024/02/19 09:34:56;;;;;;;17.30;10.50;;;23.40;47.20;;;;;;6145022;28;84038;-61
2024/02/19 09:37:57;;;;;;;16.20;10.05;;;23.40;46.20;;;;;;6154175;28;84152;-62
2024/02/19 09:40:57;;;;;;;15.13;10.27;;;23.40;47.40;;;;;;6150757;28;84577;-60
2024/02/19 09:43:58;;;;;;;13.75;9.55;;;23.40;46.20;;;;;;6153391;28;82965;-63
2024/02/19 09:46:58;;;;;;;17.33;10.82;;;23.40;47.00;;;;;;6156781;28;82994;-59
2024/02/19 09:49:59;;;;;;;14.38;9.48;;;23.40;47.30;;;;;;6150945;28;83280;-64
2024/02/19 09:53:01;;;;;;;13.32;9.38;;;23.50;47.00;;;;;;6157760;28;83594;-64
2024/02/19 09:56:01;;;;;;;16.45;10.05;;;23.50;47.60;;;;;;6155206;28;82376;-63
2024/02/19 09:59:02;;;;;;;14.82;9.07;;;23.50;47.60;;;;;;6152662;28;82998;-65
2024/02/19 10:02:02;;;;;;;14.13;8.82;;;23.50;47.80;;;;;;6149213;28;84739;-65
2024/02/19 10:05:04;;;;;;;14.23;9.38;;;23.50;47.80;;;;;;6155137;28;80878;-66
2024/02/19 10:08:12;;;;;;;14.48;9.32;;;23.50;48.60;;;;;;6153235;28;82441;-64
2024/02/19 10:11:13;;;;;;;17.55;8.95;;;23.60;48.10;;;;;;6155492;28;80537;-55
2024/02/19 10:14:14;;;;;;;16.02;9.52;;;23.50;48.50;;;;;;6156996;28;80444;-54
2024/02/19 10:17:15;;;;;;;20.48;9.75;;;23.50;47.90;;;;;;6156991;28;80460;-54
2024/02/19 10:20:15;;;;;;;15.10;9.45;;;23.50;48.50;;;;;;6153707;28;81769;-48
2024/02/19 10:23:16;;;;;;;14.65;9.82;;;23.50;48.20;;;;;;6143330;28;82058;-50
2024/02/19 10:26:16;;;;;;;15.55;10.45;;;23.50;48.00;;;;;;6158199;28;80564;-54
2024/02/19 10:29:18;;;;;;;16.80;10.30;;;23.50;47.40;;;;;;6143154;28;83385;-48
2024/02/19 10:32:18;;;;;;;15.25;9.68;;;23.50;47.60;;;;;;6145623;28;84310;-53
2024/02/19 10:35:19;;;;;;;16.95;9.77;;;23.50;47.20;;;;;;6153356;28;83066;-50
2024/02/19 10:38:20;;;;;;;17.08;10.27;;;23.50;48.00;;;;;;6152569;28;80176;-54
2024/02/19 10:41:23;;;;;;;14.63;9.88;;;23.50;48.00;;;;;;6152880;28;83202;-52
2024/02/19 10:44:24;;;;;;;15.80;10.10;;;23.50;48.40;;;;;;6154841;28;83388;-52
2024/02/19 10:47:25;;;;;;;15.48;10.07;;;23.50;48.70;;;;;;6152656;28;83183;-61
2024/02/19 10:50:26;;;;;;;14.70;10.23;;;23.50;48.00;;;;;;6152269;28;82946;-62
2024/02/19 10:53:27;;;;;;;17.08;10.75;;;23.50;48.20;;;;;;6148934;28;84204;-61
2024/02/19 10:56:28;;;;;;;14.57;10.15;;;23.60;48.60;;;;;;6153214;28;83589;-63
2024/02/19 10:59:28;;;;;;;20.20;10.45;;;23.60;48.70;;;;;;6136603;28;84476;-61
2024/02/19 11:02:29;;;;;;;16.65;11.23;;;23.50;48.20;;;;;;6152416;28;83251;-60
2024/02/19 11:05:34;;;;;;;17.75;11.80;;;23.60;48.30;;;;;;6150034;28;83333;-63
2024/02/19 11:08:36;;;;;;;27.77;10.97;;;23.50;48.50;;;;;;6145647;28;83018;-62
2024/02/19 11:11:37;;;;;;;87.70;14.13;;;23.50;49.20;;;;;;6139526;28;83343;-61
2024/02/19 11:14:37;;;;;;;32.50;10.27;;;23.50;49.10;;;;;;6151736;28;83383;-60
2024/02/19 11:17:38;;;;;;;18.52;9.20;;;23.50;49.00;;;;;;6150687;28;83178;-61
2024/02/19 11:20:38;;;;;;;34.30;8.65;;;23.60;49.50;;;;;;6155880;28;83493;-60
2024/02/19 11:23:39;;;;;;;13.75;8.32;;;23.60;49.20;;;;;;6152538;28;80913;-64
2024/02/19 11:26:40;;;;;;;25.17;8.02;;;23.60;49.50;;;;;;6155605;28;80617;-68
2024/02/19 11:29:41;;;;;;;20.38;7.25;;;23.50;49.40;;;;;;6142755;28;80410;-64
2024/02/19 11:32:41;;;;;;;15.00;6.75;;;23.50;49.30;;;;;;6148511;28;80916;-67
2024/02/19 11:35:42;;;;;;;19.58;6.68;;;23.60;49.10;;;;;;6147993;28;81668;-66
2024/02/19 11:38:42;;;;;;;17.92;7.18;;;23.50;49.00;;;;;;6149863;28;80530;-66
2024/02/19 11:41:43;;;;;;;16.00;9.43;;;23.60;49.20;;;;;;6152438;28;80830;-66
2024/02/19 11:44:45;;;;;;;16.25;8.82;;;23.50;49.50;;;;;;6156417;28;80562;-68
2024/02/19 11:47:45;;;;;;;128.93;14.38;;;23.60;49.60;;;;;;6155555;28;80447;-64
2024/02/19 11:50:46;;;;;;;25.13;9.00;;;23.50;49.80;;;;;;6149001;28;82962;-55
2024/02/19 11:53:47;;;;;;;29.77;8.93;;;23.60;67.70;;;;;;6153787;28;83461;-55
2024/02/19 11:56:49;;;;;;;29.67;9.63;;;23.60;51.40;;;;;;6154160;28;80553;-49
2024/02/19 11:59:50;;;;;;;19.67;9.10;;;23.60;54.50;;;;;;6141362;28;82352;-48
2024/02/19 12:02:51;;;;;;;25.10;8.57;;;23.60;50.80;;;;;;6155744;28;81192;-59
2024/02/19 12:05:52;;;;;;;20.92;8.10;;;23.60;59.30;;;;;;6151559;28;80955;-48
2024/02/19 12:08:52;;;;;;;21.85;8.40;;;23.50;55.20;;;;;;6156004;28;80711;-57
2024/02/19 12:11:53;;;;;;;23.08;8.95;;;23.60;55.90;;;;;;6155652;28;81140;-56
2024/02/19 12:14:53;;;;;;;14.63;6.90;;;23.70;55.70;;;;;;6143993;28;81687;-52
2024/02/19 12:17:54;;;;;;;23.58;7.65;;;23.60;66.70;;;;;;6143794;28;80389;-51
2024/02/19 12:20:54;;;;;;;9.48;6.57;;;23.60;59.10;;;;;;6148199;28;80213;-52
2024/02/19 12:23:55;;;;;;;13.93;7.22;;;23.60;57.60;;;;;;6150596;28;80380;-53
2024/02/19 12:26:55;;;;;;;13.38;7.10;;;23.60;59.20;;;;;;6154635;28;80246;-52
2024/02/19 12:29:57;;;;;;;9.07;6.20;;;23.60;57.80;;;;;;6154630;28;84655;-52
2024/02/19 12:32:57;;;;;;;15.07;6.55;;;23.70;58.60;;;;;;6147366;28;81111;-53
2024/02/19 12:35:58;;;;;;;16.85;6.45;;;23.70;57.80;;;;;;6149448;28;80521;-53
2024/02/19 12:39:01;;;;;;;11.45;6.40;;;23.60;58.70;;;;;;6153981;28;82287;-56
2024/02/19 12:42:01;;;;;;;11.57;7.88;;;23.60;60.20;;;;;;6143620;28;83656;-52
2024/02/19 12:45:02;;;;;;;9.45;6.63;;;23.50;63.30;;;;;;6152975;28;81544;-56
2024/02/19 12:48:03;;;;;;;16.63;7.22;;;23.60;64.40;;;;;;6151085;28;82821;-56
2024/02/19 12:51:03;;;;;;;9.20;6.28;;;23.60;65.00;;;;;;6144207;28;81290;-56
2024/02/19 12:54:04;;;;;;;8.07;6.28;;;23.70;66.00;;;;;;6153673;28;80583;-54
2024/02/19 12:57:05;;;;;;;7.97;5.95;;;23.70;66.20;;;;;;6153930;28;81395;-56
2024/02/19 13:00:08;;;;;;;10.02;6.38;;;23.70;63.00;;;;;;6141126;28;80509;-54
2024/02/19 13:03:08;;;;;;;13.80;6.47;;;23.60;63.40;;;;;;6151403;28;80573;-59
2024/02/19 13:06:14;;;;;;;7.18;5.28;;;23.60;65.80;;;;;;6151101;28;80417;-58
2024/02/19 13:09:15;;;;;;;10.45;6.10;;;23.70;66.00;;;;;;6149858;28;80416;-56
2024/02/19 13:12:15;;;;;;;10.27;6.10;;;23.60;66.50;;;;;;6143854;28;81013;-55
2024/02/19 13:15:16;;;;;;;7.38;4.93;;;23.60;67.20;;;;;;6147989;28;86162;-57
2024/02/19 13:18:17;;;;;;;6.00;4.50;;;23.70;63.80;;;;;;6149600;28;81051;-57
2024/02/19 13:21:19;;;;;;;6.05;4.45;;;23.70;74.10;;;;;;6147807;28;81220;-58
2024/02/19 13:24:19;;;;;;;7.40;4.97;;;23.80;74.20;;;;;;6152615;28;83119;-58
2024/02/19 13:27:21;;;;;;;7.47;4.63;;;23.60;78.20;;;;;;6152538;28;83844;-56
2024/02/19 13:30:23;;;;;;;4.95;3.95;;;23.60;50.20;;;;;;6152182;28;80662;-59
2024/02/19 13:33:24;;;;;;;6.32;4.18;;;23.60;50.20;;;;;;6149151;28;81066;-56
2024/02/19 13:36:24;;;;;;;4.47;3.90;;;23.60;50.00;;;;;;6149220;28;81662;-59
2024/02/19 13:39:25;;;;;;;6.80;4.03;;;23.50;49.90;;;;;;6153661;28;80651;-57
2024/02/19 13:42:25;;;;;;;4.50;3.63;;;23.50;49.80;;;;;;6140144;28;81560;-58
2024/02/19 13:45:27;;;;;;;6.88;4.45;;;23.50;49.50;;;;;;6138473;28;81696;-58
2024/02/19 13:48:28;;;;;;;7.80;4.05;;;23.50;50.00;;;;;;6144737;28;80916;-59
2024/02/19 13:51:28;;;;;;;4.80;3.20;;;23.40;50.00;;;;;;6149815;28;81827;-58
2024/02/19 13:54:29;;;;;;;4.93;3.70;;;23.40;49.80;;;;;;6149393;28;81234;-59
2024/02/19 13:57:29;;;;;;;5.95;3.63;;;23.40;49.90;;;;;;6167130;28;80568;-59
2024/02/19 14:00:30;;;;;;;4.10;3.13;;;23.30;50.00;;;;;;6148897;28;80734;-56
2024/02/19 14:03:31;;;;;;;4.28;3.33;;;23.40;50.00;;;;;;6140934;28;80940;-57
2024/02/19 14:06:32;;;;;;;4.43;3.00;;;23.40;50.10;;;;;;6152476;28;81347;-55
2024/02/19 14:09:32;;;;;;;6.35;3.17;;;23.40;49.60;;;;;;6161570;28;82782;-64
2024/02/19 14:12:33;;;;;;;4.60;3.05;;;23.40;48.20;;;;;;6157206;28;80947;-66
2024/02/19 14:15:33;;;;;;;4.47;3.40;;;23.40;48.70;;;;;;6148310;28;82218;-67
2024/02/19 14:18:34;;;;;;;3.85;2.47;;;23.30;47.90;;;;;;6141912;28;82942;-69
2024/02/19 14:21:35;;;;;;;3.53;2.50;;;23.20;47.10;;;;;;6155394;28;81663;-68
2024/02/19 14:24:36;;;;;;;4.47;2.30;;;23.20;46.60;;;;;;6149082;28;80979;-62
2024/02/19 14:27:42;;;;;;;5.95;3.00;;;23.10;46.40;;;;;;6154045;28;80280;-54
2024/02/19 14:30:42;;;;;;;7.43;2.70;;;23.10;46.30;;;;;;6149732;28;80697;-52
2024/02/19 14:33:43;;;;;;;3.13;2.10;;;23.00;46.30;;;;;;6150505;28;81127;-52
2024/02/19 14:36:43;;;;;;;5.30;2.80;;;23.00;46.30;;;;;;6153775;28;80317;-49
2024/02/19 14:39:44;;;;;;;9.20;3.05;;;22.90;46.10;;;;;;6154810;28;80348;-45
2024/02/19 14:42:46;;;;;;;13.48;3.35;;;22.90;46.60;;;;;;6151976;28;81047;-51
2024/02/19 14:45:46;;;;;;;6.57;3.03;;;22.80;47.20;;;;;;6155728;28;80731;-65
2024/02/19 14:48:47;;;;;;;15.48;3.83;;;22.80;48.10;;;;;;6130996;28;82941;-65
2024/02/19 14:51:48;;;;;;;5.78;2.85;;;22.80;48.40;;;;;;6152398;28;84914;-69
2024/02/19 14:54:49;;;;;;;6.25;3.00;;;22.80;49.20;;;;;;6148415;28;80400;-67
2024/02/19 14:57:50;;;;;;;8.48;3.40;;;22.80;48.20;;;;;;6151182;28;80992;-70
2024/02/19 15:00:51;;;;;;;4.60;2.47;;;22.80;47.90;;;;;;6143551;28;85290;-69
2024/02/19 15:03:51;;;;;;;5.43;2.63;;;22.70;47.60;;;;;;6146763;28;81697;-53
2024/02/19 15:06:53;;;;;;;7.18;2.50;;;22.70;47.20;;;;;;6152563;28;86214;-54
2024/02/19 15:09:54;;;;;;;6.45;2.90;;;22.70;47.20;;;;;;6153606;28;80589;-55
2024/02/19 15:12:54;;;;;;;10.20;3.88;;;22.60;47.60;;;;;;6151569;28;80505;-52
2024/02/19 15:15:55;;;;;;;6.75;2.42;;;22.60;47.60;;;;;;6153430;28;80469;-48
2024/02/19 15:18:55;;;;;;;4.03;2.50;;;22.50;47.40;;;;;;6153440;28;80682;-49
2024/02/19 15:21:56;;;;;;;6.60;3.45;;;22.50;47.30;;;;;;6150434;28;81831;-57
2024/02/19 15:24:56;;;;;;;7.72;4.65;;;22.50;47.30;;;;;;6144459;28;81084;-59